Pangborn Memorial Airport
KEAT : now visible

Airfield :











YOU CAN JOIN US ON...

 
LOGIN :

Register | Disclaimer

   EN    FR    IT 

 









Legend :    VFR   Marginal VFR   IFR   Intensive IFR   Very Intensive IFR
Visi :
Ceiling :
>= 8 km
>= 3000ft
5 to 8 km
1000 to 3000 ft
1500m to 5 km
500 to 1000 ft
800 to 1500m
200 to 500 ft
< 800m
< 200 ft
Symbols :   Thunderstorms  Fog  Heavy snow  Heavy precipitations  Wind > 20 kt






- Airport Elevation : 1249 ft


KEAT - Pangborn Memorial

CURRENT METAR :
  • 172055Z AUTO 00000KT 6SM BR OVC004 M06/M07 A3020 RMK AO2 SLP246 I1000 I3001 T10561067 51009

EXPIRED METARs :
  • 171955Z AUTO 28003KT 4SM BR OVC002 M06/M07 A3019 RMK AO2 SLP244 T10611072
  • 171946Z AUTO 26004KT 3SM BR OVC002 M06/M07 A3020 RMK AO2 T10611067
  • 171924Z AUTO 27005KT 1 3/4SM BR OVC002 M07/M08 A3019 RMK AO2 T10671078
  • 171855Z AUTO 31005KT 2 1/2SM BR OVC002 M07/M07 A3019 RMK AO2 SLP244 I1001 T10671072
  • 171850Z AUTO 00000KT 2SM BR OVC002 M07/M08 A3019 RMK AO2 I1001
  • 171841Z AUTO 30004KT 1 1/4SM BR OVC001 M07/M08 A3019 RMK AO2 I1001 T10721083
  • 171822Z AUTO 28008KT 1/2SM FZFG OVC001 M07/M09 A3018 RMK AO2 I1001 T10721094

TAF KEAT
Valid from the 17 at 19:00 until the 18 at 18:00 UTC


171924Z 1719/1818 VRB04KT 1SM BR OVC002
FM172000 VRB03KT 3SM BR OVC005
FM180000 VRB03KT P6SM OVC008
FM180600 VRB03KT P6SM VCSH OVC008
FM181000 VRB03KT 1/2SM SN FG OVC003



MET'MAP, your aeronautical weather chart ! - Copyright ORBIFLY December 2007 - Disclaimer

ORBIFLY MET'MAP TEAM :

Programming & Development : Alexandra Zaïnal
Concept & original design : Baudouin d'Aumeries
Assistance for programming : Marc-Olivier Méhu
Technical & hardware support : Manuel Goepfert

Contact : metmap@orbifly.com




SOURCES & CREDITS :

   NOAA       Earth
Advisory